Time;durP1;ratioP1;P1;durP2;ratioP2;P2;SDS_P1;SDS_P2;PMS_P1;PMS_P2;Temp;Humidity;BMP_temperature;BMP_pressure;BME280_temperature;BME280_humidity;BME280_pressure;Samples;Min_cycle;Max_cycle;Signal;HPM_P1;HPM_P2
2023/09/06 00:02:19;;;;;;;0.30;0.30;;;19.10;99.90;;;;;;5035579;28;20033;-67
2023/09/06 00:04:45;;;;;;;0.30;0.30;;;19.20;99.90;;;;;;5029829;28;20037;-67
2023/09/06 00:07:11;;;;;;;0.10;0.10;;;19.20;99.90;;;;;;5030148;28;20025;-71
2023/09/06 00:09:37;;;;;;;0.33;0.30;;;19.20;99.90;;;;;;5040236;28;20028;-67
2023/09/06 00:12:03;;;;;;;0.37;0.30;;;19.20;99.90;;;;;;5029359;28;20452;-67
2023/09/06 00:14:29;;;;;;;0.55;0.55;;;19.20;99.90;;;;;;5040557;28;20447;-67
2023/09/06 00:16:55;;;;;;;0.50;0.50;;;19.20;99.90;;;;;;5036566;28;20041;-68
2023/09/06 00:19:21;;;;;;;0.20;0.20;;;19.10;99.90;;;;;;5035020;28;20029;-67
2023/09/06 00:21:47;;;;;;;1.63;0.73;;;19.10;99.90;;;;;;5026405;28;20033;-67
2023/09/06 00:24:16;;;;;;;0.20;0.20;;;19.10;99.90;;;;;;5023071;28;20274;-67
2023/09/06 00:26:43;;;;;;;0.80;0.75;;;19.00;99.90;;;;;;5031834;28;20037;-67
2023/09/06 00:29:09;;;;;;;0.40;0.40;;;19.10;99.90;;;;;;5035588;28;20037;-67
2023/09/06 00:31:35;;;;;;;0.60;0.43;;;19.00;99.90;;;;;;5030812;28;20376;-67
2023/09/06 00:34:02;;;;;;;1.95;1.08;;;18.90;99.90;;;;;;5041229;28;20060;-67
2023/09/06 00:36:29;;;;;;;0.70;0.70;;;18.90;99.90;;;;;;5033269;28;20029;-67
2023/09/06 00:38:58;;;;;;;0.10;0.10;;;18.90;99.90;;;;;;5036731;28;20079;-67
2023/09/06 00:41:24;;;;;;;2.58;0.60;;;18.90;99.90;;;;;;5027399;28;20116;-76
2023/09/06 00:43:50;;;;;;;0.25;0.25;;;18.90;99.90;;;;;;5036443;28;20033;-67
2023/09/06 00:46:17;;;;;;;0.93;0.93;;;18.80;99.90;;;;;;5025309;28;20038;-67
2023/09/06 00:48:43;;;;;;;0.98;0.65;;;18.70;99.90;;;;;;5029217;28;20092;-67
2023/09/06 00:51:09;;;;;;;2.90;0.93;;;18.70;99.90;;;;;;5034691;28;20409;-67
2023/09/06 00:53:36;;;;;;;0.40;0.40;;;18.80;99.90;;;;;;5043601;28;20087;-67
2023/09/06 00:56:08;;;;;;;;;;;18.80;99.90;;;;;;5038092;28;20040;-74
2023/09/06 00:58:35;;;;;;;1.70;1.25;;;18.80;99.90;;;;;;5028370;28;19913;-67
2023/09/06 01:01:04;;;;;;;0.75;0.30;;;18.80;99.90;;;;;;5028702;28;20041;-67
2023/09/06 01:03:30;;;;;;;0.20;0.20;;;18.80;99.90;;;;;;5024690;28;20353;-67
2023/09/06 01:06:02;;;;;;;0.30;0.30;;;18.70;99.90;;;;;;5033241;28;20021;-68
2023/09/06 01:08:40;;;;;;;0.15;0.15;;;18.70;99.90;;;;;;5036375;28;20033;-67
2023/09/06 01:11:23;;;;;;;0.20;0.20;;;18.60;99.90;;;;;;5029135;28;20044;-68
2023/09/06 01:13:51;;;;;;;0.20;0.20;;;18.60;99.90;;;;;;5034677;28;20417;-67
2023/09/06 01:16:25;;;;;;;0.77;0.43;;;18.60;99.90;;;;;;5041347;28;20041;-67
2023/09/06 01:18:51;;;;;;;1.02;0.35;;;18.60;99.90;;;;;;5033310;28;20022;-67
2023/09/06 01:21:20;;;;;;;1.20;0.97;;;18.60;99.90;;;;;;5032954;28;20029;-67
2023/09/06 01:23:47;;;;;;;5.40;2.22;;;18.50;99.90;;;;;;5035336;28;20278;-67
2023/09/06 01:26:13;;;;;;;0.15;0.15;;;18.50;99.90;;;;;;5031424;28;20069;-76
2023/09/06 01:28:40;;;;;;;1.13;0.55;;;18.50;99.90;;;;;;5032863;28;20033;-67
2023/09/06 01:31:05;;;;;;;0.43;0.43;;;18.50;99.90;;;;;;5033216;28;20420;-68
2023/09/06 01:33:31;;;;;;;0.43;0.43;;;18.50;99.90;;;;;;5035143;28;20029;-67
2023/09/06 01:35:57;;;;;;;0.10;0.10;;;18.40;99.90;;;;;;5028880;28;20021;-67
2023/09/06 01:38:23;;;;;;;0.45;0.45;;;18.30;99.90;;;;;;5033708;28;20029;-76
2023/09/06 01:40:49;;;;;;;0.30;0.30;;;18.20;99.90;;;;;;5030094;28;20038;-67
2023/09/06 01:43:15;;;;;;;0.17;0.17;;;18.10;99.90;;;;;;5035050;28;20064;-68
2023/09/06 01:45:50;;;;;;;0.30;0.30;;;18.10;99.90;;;;;;5035030;28;20022;-67
2023/09/06 01:48:19;;;;;;;31.20;0.97;;;18.10;99.90;;;;;;5034735;28;20057;-67
2023/09/06 01:50:45;;;;;;;0.47;0.25;;;18.10;99.90;;;;;;5028834;28;20270;-66
2023/09/06 01:53:13;;;;;;;1.08;0.98;;;18.00;99.90;;;;;;5028538;28;20021;-67
2023/09/06 01:55:43;;;;;;;0.25;0.20;;;18.00;99.90;;;;;;5029397;28;20049;-67
2023/09/06 01:58:10;;;;;;;0.98;0.75;;;17.90;99.90;;;;;;5032545;28;20025;-67
2023/09/06 02:00:37;;;;;;;0.45;0.45;;;17.90;99.90;;;;;;5032737;28;20041;-67
2023/09/06 02:03:04;;;;;;;0.38;0.38;;;17.80;99.90;;;;;;5032848;28;20045;-76
2023/09/06 02:05:32;;;;;;;;;;;17.80;99.90;;;;;;5024785;28;20404;-67
2023/09/06 02:07:58;;;;;;;1.52;1.05;;;17.70;99.90;;;;;;5031225;28;19963;-67
2023/09/06 02:10:24;;;;;;;0.40;0.32;;;17.70;99.90;;;;;;5032699;28;20029;-70
2023/09/06 02:12:50;;;;;;;0.20;0.20;;;17.60;99.90;;;;;;5037059;28;20483;-67
2023/09/06 02:15:16;;;;;;;0.93;0.70;;;17.60;99.90;;;;;;5029609;28;20356;-67
2023/09/06 02:17:43;;;;;;;0.20;0.20;;;17.60;99.90;;;;;;5025292;28;20025;-67
2023/09/06 02:20:20;;;;;;;4.43;0.90;;;17.60;99.90;;;;;;5033734;28;20075;-67
2023/09/06 02:22:56;;;;;;;0.30;0.30;;;17.50;99.90;;;;;;5037020;28;20116;-67
2023/09/06 02:25:25;;;;;;;0.38;0.38;;;17.50;99.90;;;;;;5031790;28;20034;-68
2023/09/06 02:27:51;;;;;;;1.55;0.43;;;17.50;99.90;;;;;;5035457;28;20061;-67
2023/09/06 02:30:17;;;;;;;0.30;0.30;;;17.40;99.90;;;;;;5027440;28;20033;-67
2023/09/06 02:32:42;;;;;;;0.20;0.20;;;17.20;99.90;;;;;;5026783;28;20448;-75
2023/09/06 02:35:09;;;;;;;0.23;0.23;;;17.10;99.90;;;;;;5040714;28;20032;-67
2023/09/06 02:37:35;;;;;;;0.20;0.20;;;17.10;99.90;;;;;;5024692;28;20038;-67
2023/09/06 02:40:06;;;;;;;0.35;0.35;;;17.10;99.90;;;;;;5025896;28;20026;-66
2023/09/06 02:42:32;;;;;;;0.30;0.30;;;17.10;99.90;;;;;;5026653;28;20033;-68
2023/09/06 02:44:58;;;;;;;0.20;0.20;;;17.10;99.90;;;;;;5026660;28;20043;-67
2023/09/06 02:47:25;;;;;;;0.27;0.27;;;17.10;99.90;;;;;;5027449;28;20104;-67
2023/09/06 02:49:55;;;;;;;0.10;0.10;;;17.00;99.90;;;;;;5034484;28;20029;-67
2023/09/06 02:52:30;;;;;;;0.20;0.20;;;17.00;99.90;;;;;;5029710;28;20029;-67
2023/09/06 02:55:01;;;;;;;0.28;0.28;;;17.00;99.90;;;;;;5029558;28;20028;-67
2023/09/06 02:57:27;;;;;;;0.20;0.20;;;16.90;99.90;;;;;;5029873;28;20107;-67
2023/09/06 02:59:53;;;;;;;0.33;0.33;;;16.90;99.90;;;;;;5023183;28;20105;-67
2023/09/06 03:02:20;;;;;;;0.00;0.00;;;17.00;99.90;;;;;;5034473;28;20025;-67
2023/09/06 03:04:45;;;;;;;0.17;0.17;;;17.00;99.90;;;;;;5028201;28;20037;-67
2023/09/06 03:07:12;;;;;;;0.70;0.50;;;17.00;99.90;;;;;;5024430;28;20446;-67
2023/09/06 03:09:38;;;;;;;0.10;0.10;;;17.00;99.90;;;;;;5033963;28;20076;-67
2023/09/06 03:12:14;;;;;;;0.08;0.08;;;17.00;99.90;;;;;;5029960;28;20420;-67
2023/09/06 03:14:44;;;;;;;0.20;0.20;;;17.00;99.90;;;;;;5039824;28;20087;-67
2023/09/06 03:17:22;;;;;;;0.10;0.10;;;16.90;99.90;;;;;;5034878;28;20358;-67
2023/09/06 03:19:53;;;;;;;0.45;0.45;;;16.90;99.90;;;;;;5032603;28;20029;-67
2023/09/06 03:22:21;;;;;;;0.45;0.45;;;17.00;99.90;;;;;;5037509;28;20031;-67
2023/09/06 03:24:48;;;;;;;0.10;0.10;;;17.00;99.90;;;;;;5040403;28;20366;-67
2023/09/06 03:27:17;;;;;;;1.27;0.60;;;17.10;99.90;;;;;;5028955;28;20112;-76
2023/09/06 03:29:50;;;;;;;1.67;0.30;;;17.10;99.90;;;;;;5032934;28;20025;-67
2023/09/06 03:32:17;;;;;;;0.17;0.17;;;17.10;99.90;;;;;;5024284;28;20043;-67
2023/09/06 03:34:45;;;;;;;0.22;0.22;;;17.10;99.90;;;;;;5032000;28;20025;-76
2023/09/06 03:37:18;;;;;;;1.00;0.90;;;17.10;99.90;;;;;;5027656;28;20096;-67
2023/09/06 03:39:44;;;;;;;0.30;0.30;;;17.10;99.90;;;;;;5027838;28;20172;-67
2023/09/06 03:42:09;;;;;;;0.20;0.20;;;17.10;99.90;;;;;;5021393;28;20429;-75
2023/09/06 03:44:38;;;;;;;0.60;0.60;;;17.10;99.90;;;;;;5028522;28;20033;-67
2023/09/06 03:47:05;;;;;;;0.38;0.38;;;17.10;99.90;;;;;;5036975;28;20025;-67
2023/09/06 03:49:35;;;;;;;0.10;0.10;;;17.10;99.90;;;;;;5037455;28;20033;-67
2023/09/06 03:52:05;;;;;;;0.45;0.45;;;17.10;99.90;;;;;;5034051;28;20295;-67
2023/09/06 03:54:34;;;;;;;0.30;0.30;;;17.00;99.90;;;;;;5035940;28;20045;-66
2023/09/06 03:57:01;;;;;;;0.17;0.17;;;17.10;99.90;;;;;;5033285;28;20310;-67
2023/09/06 03:59:27;;;;;;;1.45;0.95;;;17.10;99.90;;;;;;5028592;28;20111;-67
2023/09/06 04:01:55;;;;;;;0.83;0.40;;;17.10;99.90;;;;;;5031376;28;20469;-67
2023/09/06 04:04:21;;;;;;;0.57;0.57;;;17.10;99.90;;;;;;5038463;28;20040;-67
2023/09/06 04:06:47;;;;;;;0.73;0.60;;;17.20;99.90;;;;;;5036976;28;20071;-67
2023/09/06 04:09:13;;;;;;;1.00;0.83;;;17.20;99.90;;;;;;5032047;28;20416;-66
2023/09/06 04:11:42;;;;;;;0.63;0.27;;;17.20;99.90;;;;;;5042236;28;20035;-66
2023/09/06 04:14:08;;;;;;;0.90;0.80;;;17.20;99.90;;;;;;5036722;28;20397;-67
2023/09/06 04:16:37;;;;;;;2.07;0.77;;;17.30;99.90;;;;;;5035012;28;20029;-67
2023/09/06 04:19:03;;;;;;;0.50;0.50;;;17.30;99.90;;;;;;5032199;28;20294;-67
2023/09/06 04:21:28;;;;;;;18.88;0.47;;;17.30;99.90;;;;;;5036767;28;20112;-67
2023/09/06 04:23:54;;;;;;;0.93;0.67;;;17.30;99.90;;;;;;5032631;28;20104;-67
2023/09/06 04:26:20;;;;;;;0.10;0.10;;;17.20;99.90;;;;;;5030216;28;20049;-67
2023/09/06 04:28:46;;;;;;;0.20;0.20;;;17.20;99.90;;;;;;5026660;28;21633;-67
2023/09/06 04:31:12;;;;;;;0.50;0.50;;;17.10;99.90;;;;;;5029115;28;20036;-75
2023/09/06 04:33:37;;;;;;;0.97;0.93;;;17.10;99.90;;;;;;5036719;28;20113;-67
2023/09/06 04:36:04;;;;;;;0.33;0.30;;;17.00;99.90;;;;;;5026919;28;20049;-67
2023/09/06 04:38:31;;;;;;;2.00;0.75;;;17.00;99.90;;;;;;5045689;28;20029;-67
2023/09/06 04:40:58;;;;;;;0.82;0.55;;;16.90;99.90;;;;;;5029237;28;20036;-67
2023/09/06 04:43:25;;;;;;;0.22;0.22;;;16.80;99.90;;;;;;5029037;28;20321;-67
2023/09/06 04:45:51;;;;;;;;;;;16.80;99.90;;;;;;5025494;28;20112;-67
2023/09/06 04:48:17;;;;;;;0.20;0.20;;;16.80;99.90;;;;;;5038133;28;19996;-76
2023/09/06 04:50:44;;;;;;;0.20;0.20;;;16.80;99.90;;;;;;5034516;28;20044;-67
2023/09/06 04:53:11;;;;;;;1.13;0.50;;;16.90;99.90;;;;;;5041523;28;20317;-67
2023/09/06 04:55:39;;;;;;;0.20;0.20;;;16.80;99.90;;;;;;5035832;28;20411;-67
2023/09/06 04:58:06;;;;;;;0.20;0.20;;;16.70;99.90;;;;;;5034458;28;20087;-67
2023/09/06 05:00:36;;;;;;;0.88;0.38;;;16.70;99.90;;;;;;5025840;28;20025;-67
2023/09/06 05:03:03;;;;;;;0.10;0.10;;;16.70;99.90;;;;;;5038665;28;20110;-67
2023/09/06 05:05:29;;;;;;;;;;;16.70;99.90;;;;;;5027630;28;20128;-67
2023/09/06 05:07:55;;;;;;;0.75;0.57;;;16.70;99.90;;;;;;5040947;28;20355;-76
2023/09/06 05:10:20;;;;;;;0.73;0.60;;;16.60;99.90;;;;;;5030772;28;20404;-67
2023/09/06 05:12:46;;;;;;;0.60;0.53;;;16.60;99.90;;;;;;5027855;28;20100;-68
2023/09/06 05:15:13;;;;;;;0.23;0.23;;;16.60;99.90;;;;;;5039450;28;20050;-66
2023/09/06 05:17:42;;;;;;;;;;;16.60;99.90;;;;;;5032106;28;20036;-67
2023/09/06 05:20:35;;;;;;;1.23;0.50;;;16.60;99.90;;;;;;5025504;28;20338;-66
2023/09/06 05:23:05;;;;;;;1.10;0.82;;;16.60;99.90;;;;;;5024819;28;20108;-67
2023/09/06 05:25:32;;;;;;;0.15;0.15;;;16.60;99.90;;;;;;5033446;28;20045;-76
2023/09/06 05:28:05;;;;;;;;;;;16.70;99.90;;;;;;5034664;28;20021;-67
2023/09/06 05:30:34;;;;;;;0.70;0.70;;;16.70;99.90;;;;;;5030663;28;19913;-67
2023/09/06 05:32:59;;;;;;;0.25;0.25;;;16.70;99.90;;;;;;5026937;28;20028;-67
2023/09/06 05:35:26;;;;;;;0.20;0.20;;;16.70;99.90;;;;;;5031221;28;20029;-67
2023/09/06 05:37:52;;;;;;;0.85;0.73;;;16.70;99.90;;;;;;5033986;28;20325;-76
2023/09/06 05:40:22;;;;;;;0.57;0.57;;;16.70;99.90;;;;;;5034975;28;20109;-67
2023/09/06 05:42:52;;;;;;;0.10;0.10;;;16.70;99.90;;;;;;5032380;28;20072;-67
2023/09/06 05:45:20;;;;;;;0.10;0.10;;;16.70;99.90;;;;;;5037324;28;20040;-67
2023/09/06 05:47:46;;;;;;;0.85;0.40;;;16.70;99.90;;;;;;5039582;28;20029;-67
2023/09/06 05:50:12;;;;;;;0.30;0.30;;;16.70;99.90;;;;;;5038006;28;20034;-76
2023/09/06 05:52:38;;;;;;;0.40;0.40;;;16.80;99.90;;;;;;5035859;28;20041;-67
2023/09/06 05:55:04;;;;;;;0.50;0.43;;;16.80;99.90;;;;;;5037343;28;20059;-66
2023/09/06 05:57:33;;;;;;;0.90;0.82;;;16.80;99.90;;;;;;5038799;28;20033;-67
2023/09/06 05:59:59;;;;;;;0.68;0.68;;;16.90;99.90;;;;;;5031614;28;20083;-66
2023/09/06 06:02:25;;;;;;;2.45;0.65;;;16.90;99.90;;;;;;5033782;28;20034;-66
2023/09/06 06:04:52;;;;;;;1.90;0.63;;;17.00;99.90;;;;;;5036048;28;20044;-67
2023/09/06 06:07:18;;;;;;;0.45;0.45;;;17.10;99.90;;;;;;5033068;28;20099;-76
2023/09/06 06:09:44;;;;;;;1.67;1.57;;;17.10;99.90;;;;;;5029918;28;20041;-67
2023/09/06 06:12:10;;;;;;;0.80;0.73;;;17.20;99.90;;;;;;5031126;28;20029;-67
2023/09/06 06:14:40;;;;;;;0.22;0.22;;;17.20;99.90;;;;;;5033412;28;20036;-67
2023/09/06 06:17:06;;;;;;;0.65;0.65;;;17.20;99.90;;;;;;5035364;28;20367;-67
2023/09/06 06:19:35;;;;;;;2.33;0.45;;;17.20;99.90;;;;;;5032079;28;20029;-67
2023/09/06 06:22:03;;;;;;;5.75;2.65;;;17.30;99.90;;;;;;5037267;28;20033;-66
2023/09/06 06:24:31;;;;;;;0.15;0.15;;;17.30;99.90;;;;;;5043656;28;20421;-67
2023/09/06 06:26:58;;;;;;;0.32;0.30;;;17.40;99.90;;;;;;5024215;28;20045;-67
2023/09/06 06:29:23;;;;;;;;;;;17.40;99.90;;;;;;5028726;28;20447;-76
2023/09/06 06:31:49;;;;;;;0.63;0.25;;;17.50;99.90;;;;;;5031328;28;19917;-76
2023/09/06 06:34:18;;;;;;;0.43;0.43;;;17.50;99.90;;;;;;5034756;28;20155;-67
2023/09/06 06:36:47;;;;;;;2.70;0.77;;;17.60;99.90;;;;;;5030426;28;20022;-67
2023/09/06 06:39:14;;;;;;;0.75;0.50;;;17.60;99.90;;;;;;5029679;28;20040;-77
2023/09/06 06:41:40;;;;;;;0.25;0.25;;;17.70;99.90;;;;;;5030645;28;20321;-67
2023/09/06 06:44:06;;;;;;;;;;;17.80;99.90;;;;;;5031076;28;20025;-67
2023/09/06 06:46:34;;;;;;;0.68;0.60;;;17.80;99.90;;;;;;5030010;28;19919;-67
2023/09/06 06:49:04;;;;;;;1.15;0.65;;;18.00;99.90;;;;;;5035391;28;20469;-67
2023/09/06 06:51:38;;;;;;;0.45;0.45;;;18.10;99.90;;;;;;5039557;28;20048;-67
2023/09/06 06:54:08;;;;;;;1.85;0.85;;;18.20;99.90;;;;;;5033080;28;20029;-66
2023/09/06 06:56:37;;;;;;;2.33;1.13;;;18.40;99.90;;;;;;5039548;28;20025;-76
2023/09/06 06:59:03;;;;;;;0.57;0.52;;;18.50;99.90;;;;;;5030804;28;20056;-76
2023/09/06 07:01:30;;;;;;;0.65;0.47;;;18.60;99.90;;;;;;5036888;28;20029;-67
2023/09/06 07:03:57;;;;;;;0.50;0.30;;;18.80;99.90;;;;;;5034119;28;20080;-75
2023/09/06 07:06:24;;;;;;;0.40;0.40;;;19.00;99.90;;;;;;5032076;28;20037;-67
2023/09/06 07:08:50;;;;;;;3.83;1.00;;;19.20;99.90;;;;;;5032036;28;20037;-67
2023/09/06 07:11:16;;;;;;;0.30;0.30;;;19.40;99.90;;;;;;5032198;28;20577;-66
2023/09/06 07:13:42;;;;;;;0.52;0.52;;;19.50;99.90;;;;;;5031449;28;20038;-67
2023/09/06 07:16:11;;;;;;;0.63;0.63;;;19.70;99.90;;;;;;5024274;28;20147;-67
2023/09/06 07:18:37;;;;;;;0.70;0.70;;;20.00;99.90;;;;;;5039492;28;20091;-66
2023/09/06 07:21:03;;;;;;;3.17;1.47;;;20.20;99.90;;;;;;5029064;28;20064;-77
2023/09/06 07:23:28;;;;;;;0.70;0.50;;;20.40;99.90;;;;;;5038682;28;20032;-68
2023/09/06 07:25:54;;;;;;;0.50;0.50;;;20.70;99.90;;;;;;5026833;28;20299;-66
2023/09/06 07:28:23;;;;;;;2.27;1.50;;;20.90;99.90;;;;;;5024301;28;20080;-66
2023/09/06 07:30:49;;;;;;;1.73;1.15;;;21.10;99.90;;;;;;5027379;28;20044;-68
2023/09/06 07:33:15;;;;;;;0.20;0.20;;;21.40;99.90;;;;;;5033648;28;20029;-67
2023/09/06 07:35:42;;;;;;;1.38;0.80;;;21.60;99.90;;;;;;5031937;28;20033;-77
2023/09/06 07:38:08;;;;;;;0.75;0.75;;;21.80;99.90;;;;;;5029593;28;20085;-76
2023/09/06 07:40:33;;;;;;;0.43;0.43;;;22.00;99.90;;;;;;5028912;28;20033;-67
2023/09/06 07:42:59;;;;;;;1.80;1.63;;;22.30;99.90;;;;;;5026609;28;20109;-68
2023/09/06 07:45:25;;;;;;;0.57;0.57;;;22.40;99.90;;;;;;5024974;28;20049;-67
2023/09/06 07:47:51;;;;;;;0.30;0.30;;;22.60;99.90;;;;;;5028931;28;20041;-67
2023/09/06 07:50:17;;;;;;;0.55;0.55;;;22.70;99.90;;;;;;5029940;28;20472;-68
2023/09/06 07:52:42;;;;;;;0.73;0.73;;;22.90;99.90;;;;;;5027939;28;20121;-67
2023/09/06 07:55:08;;;;;;;0.20;0.20;;;23.10;99.90;;;;;;5025875;28;20049;-67
2023/09/06 07:57:34;;;;;;;0.63;0.47;;;23.10;99.90;;;;;;5029582;28;20112;-67
2023/09/06 08:00:00;;;;;;;0.40;0.40;;;23.30;99.90;;;;;;5031326;28;20167;-67
2023/09/06 08:02:26;;;;;;;2.43;0.80;;;23.30;99.90;;;;;;5036077;28;20258;-67
2023/09/06 08:04:51;;;;;;;0.43;0.43;;;23.50;99.90;;;;;;5036049;28;20569;-76
2023/09/06 08:07:18;;;;;;;0.50;0.50;;;23.60;99.90;;;;;;5032725;28;20067;-67
2023/09/06 08:09:43;;;;;;;1.80;0.98;;;23.90;99.90;;;;;;5035020;28;20420;-67
2023/09/06 08:12:09;;;;;;;0.80;0.20;;;24.10;99.90;;;;;;5027297;28;20037;-66
2023/09/06 08:14:35;;;;;;;0.40;0.40;;;24.30;99.90;;;;;;5034905;28;20038;-68
2023/09/06 08:17:02;;;;;;;1.85;0.30;;;24.40;99.90;;;;;;5036427;28;20032;-67
2023/09/06 08:19:27;;;;;;;0.63;0.63;;;24.50;99.90;;;;;;5036206;28;20033;-67
2023/09/06 08:21:53;;;;;;;0.80;0.80;;;24.50;99.90;;;;;;5037582;28;20034;-75
2023/09/06 08:24:19;;;;;;;0.63;0.63;;;24.60;99.90;;;;;;5032949;28;20405;-67
2023/09/06 08:26:48;;;;;;;1.37;0.97;;;24.70;99.90;;;;;;5035759;28;20093;-67
2023/09/06 08:29:13;;;;;;;0.17;0.10;;;24.70;99.90;;;;;;5027109;28;20092;-67
2023/09/06 08:31:39;;;;;;;1.42;0.32;;;24.80;99.90;;;;;;5033197;28;20037;-68
2023/09/06 08:34:07;;;;;;;0.43;0.43;;;25.00;99.90;;;;;;5032675;28;20034;-67
2023/09/06 08:36:32;;;;;;;0.30;0.30;;;25.10;99.90;;;;;;5029039;28;20448;-67
2023/09/06 08:38:58;;;;;;;0.13;0.13;;;25.30;99.90;;;;;;5038431;28;20028;-68
2023/09/06 08:41:28;;;;;;;0.95;0.90;;;25.40;99.90;;;;;;5031333;28;20056;-67
2023/09/06 08:43:54;;;;;;;0.55;0.55;;;25.50;99.90;;;;;;5029193;28;20319;-68
2023/09/06 08:46:25;;;;;;;0.50;0.50;;;25.70;99.90;;;;;;5029795;28;20417;-67
2023/09/06 08:48:52;;;;;;;0.10;0.10;;;25.70;99.90;;;;;;5036723;28;20029;-68
2023/09/06 08:51:20;;;;;;;0.40;0.35;;;25.90;99.90;;;;;;5036302;28;20030;-66
2023/09/06 08:53:48;;;;;;;0.00;0.00;;;26.00;99.90;;;;;;5029415;28;20033;-67
2023/09/06 08:56:17;;;;;;;1.02;0.95;;;26.00;99.90;;;;;;5028724;28;20087;-67
2023/09/06 08:58:43;;;;;;;3.03;1.55;;;26.10;99.90;;;;;;5044660;28;20079;-68
2023/09/06 09:01:09;;;;;;;0.82;0.82;;;26.20;99.90;;;;;;5031472;28;20025;-67
2023/09/06 09:03:35;;;;;;;0.75;0.75;;;26.40;99.90;;;;;;5037120;28;20053;-68
2023/09/06 09:06:08;;;;;;;1.55;0.43;;;26.50;99.90;;;;;;5041008;28;20028;-68
2023/09/06 09:08:35;;;;;;;0.20;0.20;;;26.70;99.90;;;;;;5029768;28;20068;-68
2023/09/06 09:11:15;;;;;;;0.10;0.10;;;26.80;99.90;;;;;;5033328;28;20048;-76
2023/09/06 09:13:42;;;;;;;0.10;0.10;;;26.90;99.90;;;;;;5029621;28;20113;-67
2023/09/06 09:16:12;;;;;;;0.40;0.40;;;27.00;99.90;;;;;;5036621;28;20109;-67
2023/09/06 09:18:39;;;;;;;0.50;0.50;;;27.10;99.90;;;;;;5032838;28;20030;-68
2023/09/06 09:21:11;;;;;;;0.32;0.32;;;27.20;99.90;;;;;;5034346;28;20431;-68
2023/09/06 09:23:52;;;;;;;2.92;0.68;;;27.30;99.90;;;;;;5028520;28;20123;-67
2023/09/06 09:26:21;;;;;;;0.32;0.30;;;27.40;99.90;;;;;;5040231;28;20065;-68
2023/09/06 09:28:48;;;;;;;2.20;0.80;;;27.50;99.90;;;;;;5033810;28;20033;-68
2023/09/06 09:31:15;;;;;;;0.20;0.20;;;27.60;99.90;;;;;;5041111;28;20037;-76
2023/09/06 09:33:49;;;;;;;0.30;0.30;;;27.70;99.90;;;;;;5033463;28;20021;-68
2023/09/06 09:36:18;;;;;;;0.10;0.10;;;27.80;99.90;;;;;;5039017;28;20049;-68
2023/09/06 09:38:51;;;;;;;0.30;0.22;;;27.90;99.90;;;;;;5038077;28;20036;-68
2023/09/06 09:41:17;;;;;;;0.10;0.10;;;28.00;99.90;;;;;;5031834;28;20038;-68
2023/09/06 09:43:42;;;;;;;2.35;0.77;;;28.00;99.90;;;;;;5026374;28;20030;-68
2023/09/06 09:46:09;;;;;;;2.75;0.68;;;28.10;99.90;;;;;;5030651;28;20036;-68
2023/09/06 09:48:36;;;;;;;0.20;0.20;;;28.20;99.90;;;;;;5028585;28;20046;-68
2023/09/06 09:51:04;;;;;;;0.20;0.20;;;28.30;99.90;;;;;;5029587;28;20025;-68
2023/09/06 09:53:32;;;;;;;0.35;0.35;;;28.40;99.90;;;;;;5034997;28;20072;-68
2023/09/06 09:56:04;;;;;;;0.80;0.40;;;28.50;99.90;;;;;;5026347;28;20032;-68
2023/09/06 09:58:34;;;;;;;0.25;0.25;;;28.60;99.90;;;;;;5033835;28;20028;-68
2023/09/06 10:01:01;;;;;;;1.30;0.30;;;28.70;99.90;;;;;;5027127;28;20030;-68
2023/09/06 10:03:27;;;;;;;0.20;0.20;;;28.80;99.90;;;;;;5026819;28;20028;-68
2023/09/06 10:05:53;;;;;;;1.35;0.38;;;28.80;99.90;;;;;;5024886;28;20357;-68
2023/09/06 10:08:21;;;;;;;0.10;0.10;;;29.00;99.90;;;;;;5024337;28;20025;-68
2023/09/06 10:10:49;;;;;;;0.10;0.10;;;29.00;99.90;;;;;;5023975;28;20033;-69
2023/09/06 10:13:15;;;;;;;0.73;0.60;;;29.00;99.90;;;;;;5023989;28;20156;-69
2023/09/06 10:15:43;;;;;;;0.10;0.10;;;29.00;99.90;;;;;;5026569;28;20434;-68
2023/09/06 10:18:08;;;;;;;0.45;0.45;;;29.10;99.90;;;;;;5026463;28;20096;-68
2023/09/06 10:20:37;;;;;;;0.08;0.08;;;29.10;99.90;;;;;;5033839;28;20172;-68
2023/09/06 10:23:05;;;;;;;0.32;0.32;;;29.20;99.90;;;;;;5025595;28;20340;-68
2023/09/06 10:25:32;;;;;;;0.70;0.40;;;29.30;99.90;;;;;;5017400;28;20341;-68
2023/09/06 10:28:01;;;;;;;0.20;0.20;;;29.30;99.90;;;;;;5031811;28;20025;-69
2023/09/06 10:30:43;;;;;;;0.32;0.22;;;29.40;99.90;;;;;;5031374;28;20065;-68
2023/09/06 10:33:10;;;;;;;0.38;0.38;;;29.40;99.90;;;;;;5029631;28;20163;-76
2023/09/06 10:35:42;;;;;;;0.17;0.17;;;29.40;99.90;;;;;;5033854;28;20025;-68
2023/09/06 10:38:10;;;;;;;0.17;0.17;;;29.50;99.90;;;;;;5022754;28;20147;-68
2023/09/06 10:40:51;;;;;;;0.10;0.10;;;29.40;99.90;;;;;;5024056;28;20029;-68
2023/09/06 10:43:23;;;;;;;0.20;0.20;;;29.50;99.90;;;;;;5031175;28;20026;-68
2023/09/06 10:45:55;;;;;;;16.20;1.83;;;29.50;99.90;;;;;;5029442;28;20025;-68
2023/09/06 10:48:21;;;;;;;0.90;0.60;;;29.60;99.90;;;;;;5031571;28;20075;-68
2023/09/06 10:51:09;;;;;;;0.52;0.52;;;29.60;99.90;;;;;;5032584;28;20029;-67
2023/09/06 10:53:36;;;;;;;0.70;0.68;;;29.60;99.90;;;;;;5028448;28;20057;-68
2023/09/06 10:56:02;;;;;;;0.20;0.20;;;29.50;99.90;;;;;;5040640;28;20037;-67
2023/09/06 10:58:30;;;;;;;0.70;0.68;;;29.50;99.90;;;;;;5025865;28;20075;-68
2023/09/06 11:01:18;;;;;;;0.30;0.30;;;29.50;99.90;;;;;;5030038;28;20088;-68
2023/09/06 11:03:54;;;;;;;0.20;0.20;;;29.70;99.90;;;;;;5034056;28;20317;-67
2023/09/06 11:06:19;;;;;;;0.60;0.60;;;29.70;99.90;;;;;;5026814;28;20064;-68
2023/09/06 11:08:47;;;;;;;3.53;0.50;;;29.70;99.90;;;;;;5023743;28;20065;-68
2023/09/06 11:11:14;;;;;;;0.38;0.38;;;29.70;99.90;;;;;;5024854;28;20037;-67
2023/09/06 11:13:41;;;;;;;1.02;0.95;;;29.80;99.90;;;;;;5034317;28;20502;-75
2023/09/06 11:16:12;;;;;;;0.50;0.50;;;29.90;99.90;;;;;;5027808;28;20033;-68
2023/09/06 11:18:46;;;;;;;0.32;0.28;;;29.80;99.90;;;;;;5035222;28;20032;-68
2023/09/06 11:21:17;;;;;;;3.70;0.95;;;29.90;99.90;;;;;;5037587;28;20025;-68
2023/09/06 11:23:47;;;;;;;0.32;0.20;;;29.90;99.90;;;;;;5020408;28;20418;-68
2023/09/06 11:26:13;;;;;;;0.50;0.30;;;29.90;99.90;;;;;;5034374;28;20045;-68
2023/09/06 11:28:42;;;;;;;9.70;0.65;;;30.00;99.90;;;;;;5027620;28;20045;-68
2023/09/06 11:31:25;;;;;;;3.50;1.08;;;30.00;99.90;;;;;;5027661;28;20493;-68
2023/09/06 11:34:00;;;;;;;2.63;0.98;;;30.00;99.90;;;;;;5034898;28;20079;-68
2023/09/06 11:36:36;;;;;;;0.30;0.30;;;30.10;99.90;;;;;;5042339;28;20046;-68
2023/09/06 11:42:00;;;;;;;0.50;0.40;;;30.20;99.90;;;;;;5054708;28;20044;-68
2023/09/06 11:44:26;;;;;;;0.22;0.22;;;30.10;99.90;;;;;;5058641;28;20490;-68
2023/09/06 11:46:53;;;;;;;0.63;0.63;;;30.20;99.90;;;;;;5058617;28;20048;-68
2023/09/06 11:49:21;;;;;;;0.65;0.65;;;30.20;99.90;;;;;;5055271;28;20044;-68
2023/09/06 11:51:49;;;;;;;1.02;0.30;;;30.20;99.90;;;;;;5042334;28;20335;-68
2023/09/06 11:54:15;;;;;;;0.28;0.28;;;30.10;99.90;;;;;;5055365;28;20072;-69
2023/09/06 11:56:47;;;;;;;0.15;0.13;;;30.20;99.90;;;;;;5055021;28;20021;-69
2023/09/06 11:59:14;;;;;;;0.20;0.20;;;30.10;99.90;;;;;;5043733;28;20120;-68
2023/09/06 12:01:40;;;;;;;0.20;0.20;;;30.20;99.90;;;;;;5056680;28;20393;-69
2023/09/06 12:04:15;;;;;;;0.40;0.40;;;30.20;99.90;;;;;;5056047;28;20029;-69
2023/09/06 12:06:42;;;;;;;0.20;0.20;;;30.20;99.90;;;;;;5038635;28;20029;-69
2023/09/06 12:09:12;;;;;;;;;;;30.20;99.90;;;;;;5057406;28;20025;-68
2023/09/06 12:11:39;;;;;;;4.00;0.73;;;30.20;99.90;;;;;;5054829;28;19999;-69
2023/09/06 12:14:05;;;;;;;0.32;0.32;;;30.10;99.90;;;;;;5050563;28;20032;-69
2023/09/06 12:16:31;;;;;;;1.70;0.70;;;30.20;99.90;;;;;;5055037;28;20029;-68
2023/09/06 12:18:57;;;;;;;0.50;0.30;;;30.10;99.90;;;;;;5044036;28;20037;-68
2023/09/06 12:21:22;;;;;;;0.43;0.38;;;30.10;99.90;;;;;;5029164;28;20029;-68
2023/09/06 12:23:48;;;;;;;0.05;0.05;;;30.10;99.90;;;;;;5027455;28;20034;-68
2023/09/06 12:26:16;;;;;;;0.13;0.13;;;30.20;99.90;;;;;;5036177;28;20045;-76
2023/09/06 12:28:42;;;;;;;1.15;0.75;;;30.30;99.90;;;;;;5033836;28;20356;-68
2023/09/06 12:31:08;;;;;;;0.20;0.20;;;30.20;99.90;;;;;;5028239;28;20033;-68
2023/09/06 12:33:33;;;;;;;0.47;0.45;;;30.30;99.90;;;;;;5039339;28;20029;-68
2023/09/06 12:36:00;;;;;;;0.98;0.40;;;30.50;99.90;;;;;;5034316;28;20025;-68
2023/09/06 12:38:28;;;;;;;0.13;0.13;;;30.40;99.90;;;;;;5025945;28;20108;-68
2023/09/06 12:40:53;;;;;;;0.75;0.47;;;30.40;99.90;;;;;;5033969;28;20036;-69
2023/09/06 12:43:21;;;;;;;0.30;0.20;;;30.40;99.90;;;;;;5030222;28;20029;-77
2023/09/06 12:45:47;;;;;;;0.20;0.20;;;30.40;99.90;;;;;;5042385;28;20082;-68
2023/09/06 12:48:13;;;;;;;0.38;0.28;;;30.40;99.90;;;;;;5036155;28;20052;-67
2023/09/06 12:50:39;;;;;;;0.43;0.43;;;30.40;99.90;;;;;;5044686;28;20692;-68
2023/09/06 12:53:07;;;;;;;0.20;0.20;;;30.40;99.90;;;;;;5030932;28;20046;-68
2023/09/06 12:55:34;;;;;;;0.40;0.40;;;30.40;99.90;;;;;;5034556;28;20021;-67